Time;durP1;ratioP1;P1;durP2;ratioP2;P2;SDS_P1;SDS_P2;PMS_P1;PMS_P2;Temp;Humidity;BMP_temperature;BMP_pressure;BME280_temperature;BME280_humidity;BME280_pressure;Samples;Min_cycle;Max_cycle;Signal;HPM_P1;HPM_P2
2021/12/19 19:02:31;;;;;;;5.18;1.50;;;;;;;20.02;100.00;102809.69;2614348;54;23194;-61
2021/12/19 19:05:03;;;;;;;4.72;1.75;;;;;;;20.04;100.00;102804.94;2619110;54;20027;-60
2021/12/19 19:07:33;;;;;;;4.25;1.50;;;;;;;20.05;100.00;102798.50;2755424;36;76959;-61
2021/12/19 19:10:03;;;;;;;3.83;1.50;;;;;;;20.06;100.00;102805.66;2619905;46;20031;-61
2021/12/19 19:12:33;;;;;;;4.72;1.67;;;;;;;20.08;100.00;102811.84;2653593;36;82097;-60
2021/12/19 19:15:01;;;;;;;4.22;1.50;;;;;;;20.09;100.00;102804.50;3465369;36;20024;-61
2021/12/19 19:17:32;;;;;;;3.28;1.50;;;;;;;20.09;100.00;102808.06;3511275;31;21177;-61
2021/12/19 19:20:01;;;;;;;3.35;1.63;;;;;;;20.05;100.00;102805.81;3515343;36;20011;-61
2021/12/19 19:22:29;;;;;;;5.47;1.60;;;;;;;20.01;100.00;102804.38;3507953;36;20104;-61
2021/12/19 19:24:58;;;;;;;3.22;1.80;;;;;;;19.98;100.00;102788.28;3493463;36;20015;-60
2021/12/19 19:27:27;;;;;;;4.13;1.60;;;;;;;19.97;100.00;102783.84;3512998;36;20610;-61
2021/12/19 19:29:56;;;;;;;5.22;2.15;;;;;;;19.93;100.00;102783.28;3114273;36;20554;-61
2021/12/19 19:49:40;;;;;;;5.95;2.08;;;;;;;7.42;100.00;102800.91;2635445;46;20034;-83
2021/12/19 19:52:08;;;;;;;7.13;2.28;;;;;;;7.21;100.00;102802.69;2634615;46;20030;-82
2021/12/19 19:54:38;;;;;;;8.05;2.35;;;;;;;7.18;100.00;102805.50;2634639;46;20017;-82
2021/12/19 19:57:06;;;;;;;;;;;;;;;6.99;100.00;102803.63;2634723;54;20023;-82
2021/12/19 19:59:36;;;;;;;8.77;2.73;;;;;;;6.92;100.00;102799.47;2634759;54;20045;-82
2021/12/19 20:09:52;;;;;;;9.23;2.53;;;;;;;6.70;100.00;102815.56;2633513;54;20023;-83
2021/12/19 20:12:20;;;;;;;6.82;3.13;;;;;;;6.56;100.00;102820.59;2634705;47;20014;-82
2021/12/19 21:05:40;;;;;;;7.95;1.70;;;;;;;6.44;100.00;102862.94;2207512;54;21444;31
2021/12/19 21:23:42;;;;;;;12.70;2.75;;;;;;;6.24;100.00;102858.38;2634198;38;20659;-81
2021/12/19 21:33:52;;;;;;;13.52;2.58;;;;;;;6.24;100.00;102863.72;2635508;54;20037;-82
2021/12/19 21:38:59;;;;;;;13.55;3.25;;;;;;;6.40;100.00;102839.91;2635692;54;20003;-83
2021/12/19 21:44:05;;;;;;;12.88;2.65;;;;;;;6.12;100.00;102837.44;2635685;54;20270;-82
2021/12/19 21:51:40;;;;;;;22.38;3.50;;;;;;;6.13;100.00;102834.69;2631847;54;20015;-84
2021/12/19 21:54:11;;;;;;;13.77;2.47;;;;;;;6.09;100.00;102837.53;2631521;54;20027;-82
2021/12/19 22:06:53;;;;;;;15.93;3.10;;;;;;;6.16;100.00;102808.78;2631980;54;20545;-83
2021/12/19 22:12:04;;;;;;;17.98;3.47;;;;;;;6.12;100.00;102837.44;2631751;54;20478;-82
2021/12/19 22:22:22;;;;;;;14.70;3.00;;;;;;;6.22;100.00;102825.44;2630920;54;20007;-82
2021/12/19 22:30:00;;;;;;;26.52;3.88;;;;;;;5.95;100.00;102809.50;2631167;54;20560;-82
2021/12/19 22:32:28;;;;;;;21.02;4.30;;;;;;;6.08;100.00;102804.59;2630957;54;20062;-82
2021/12/19 22:34:56;;;;;;;19.73;3.60;;;;;;;5.98;100.00;102800.53;2630359;54;20026;-82
2021/12/19 22:39:58;;;;;;;26.10;3.60;;;;;;;6.13;100.00;102810.63;2631612;54;20022;-82
2021/12/19 22:42:26;;;;;;;19.40;4.07;;;;;;;6.17;100.00;102808.72;2631063;47;20022;-82
2021/12/19 22:44:54;;;;;;;22.83;3.63;;;;;;;6.09;100.00;102811.69;2630874;47;20030;-82
2021/12/19 22:47:25;;;;;;;16.73;3.55;;;;;;;6.09;100.00;102808.13;2630881;54;20280;-82
2021/12/19 22:52:29;;;;;;;26.95;4.55;;;;;;;6.00;100.00;102803.16;2631493;54;20790;-82
2021/12/19 22:54:57;;;;;;;20.98;3.85;;;;;;;5.90;100.00;102799.91;2631633;54;20034;-82
2021/12/19 22:57:26;;;;;;;21.83;3.50;;;;;;;5.90;100.00;102803.47;2632153;39;20628;-81
2021/12/19 22:59:55;;;;;;;18.55;2.97;;;;;;;5.85;100.00;102797.41;2631112;47;20034;-82
2021/12/19 23:02:29;;;;;;;20.27;3.65;;;;;;;5.92;100.00;102801.59;2633295;39;20463;-82
2021/12/19 23:04:58;;;;;;;27.02;4.55;;;;;;;5.83;100.00;102801.06;2631801;54;20015;-82
2021/12/19 23:07:26;;;;;;;17.50;3.50;;;;;;;5.76;100.00;102798.63;2631099;47;20023;-82
2021/12/19 23:09:54;;;;;;;22.15;4.65;;;;;;;5.84;100.00;102798.34;2631588;54;20077;-82
2021/12/19 23:12:25;;;;;;;24.92;3.63;;;;;;;5.69;100.00;102793.59;2630850;47;20011;-82
2021/12/19 23:14:55;;;;;;;22.48;3.25;;;;;;;5.67;100.00;102793.63;2630681;54;20015;-82
2021/12/19 23:17:52;;;;;;;17.65;3.72;;;;;;;5.72;100.00;102796.13;2630603;54;20030;-82
2021/12/19 23:20:18;;;;;;;18.70;3.30;;;;;;;5.79;100.00;102795.84;2630636;46;20049;-82
2021/12/19 23:22:46;;;;;;;23.67;3.92;;;;;;;5.70;100.00;102790.00;2630865;46;20022;-82
2021/12/19 23:25:15;;;;;;;23.70;4.07;;;;;;;5.74;100.00;102795.16;2633513;39;20580;-82
2021/12/19 23:27:49;;;;;;;17.33;3.92;;;;;;;5.71;100.00;102791.72;2630643;54;20030;-81
2021/12/19 23:30:18;;;;;;;21.33;3.83;;;;;;;5.73;100.00;102790.75;2630778;54;20047;-82
2021/12/19 23:33:02;;;;;;;22.95;4.13;;;;;;;5.96;100.00;102789.88;2630315;54;20031;-82
2021/12/19 23:35:41;;;;;;;20.63;3.88;;;;;;;5.91;100.00;102786.50;2630576;54;20015;-82
2021/12/19 23:38:22;;;;;;;10.00;2.95;;;;;;;5.89;100.00;102792.81;2631048;54;20030;-82
2021/12/19 23:45:59;;;;;;;23.20;4.03;;;;;;;5.74;100.00;102794.28;2630919;54;19998;-82
2021/12/19 23:51:03;;;;;;;16.67;3.17;;;;;;;5.66;100.00;102785.69;2630511;54;20015;-82
2021/12/19 23:53:31;;;;;;;20.38;4.00;;;;;;;5.79;100.00;102782.47;2629108;47;20543;-82
2021/12/19 23:55:59;;;;;;;28.88;4.43;;;;;;;5.64;100.00;102779.50;2630180;47;20027;-81
2021/12/19 23:58:27;;;;;;;17.13;2.90;;;;;;;5.81;100.00;102777.09;2630558;54;20031;-81
